Terminal Aerodrome Forecast
Issued by NWS

Home | Current Version | Previous Version | Text Only | Print | Product List | Glossary Off
Versions: 1 2 3 4 5 6 7 8 9 10 11 12 13 14 15 16 17 18 19

890
FTUS43 KICT 162339
TAFHUT
TAF
KHUT 162339Z 1700/1724 30008KT P6SM OVC008
     FM170900 31008KT P6SM OVC010
     FM171100 31007KT P6SM OVC025
     FM171200 31007KT P6SM OVC040
     FM172000 30006KT P6SM SCT200=

USA.gov is the U.S. government's official web portal to all federal, state and local government web resources and services.